ADDS TAF Board (Experimental) INFO Settings
IDs: Format: Expanded Condensed

KBWI - Baltimore-Washington, MD, US

Issued at 1144 UTC 04 May 2015
Updated at: 1402 UTC 04 May 2015
Time1354Z 04/15Z 04/16Z 04/17Z 04/18Z 04/19Z 04/20Z 04/21Z 04/22Z 04/23Z 05/00Z 05/01Z 05/02Z 05/03Z
Type OBS PRVL PRVL PRVL PRVL PRVL PRVL PRVL PRVL PRVL PRVL PRVL PRVL PRVL
VIS 10 >6 >6 >6 >6 >6 >6 >6 >6 >6 >6 >6 >6 >6
CIG -- -- -- -- -- -- -- -- -- -- -- -- -- --
Cover FEW FEW FEW FEW SCT SCT SCT SCT FEW FEW FEW FEW FEW FEW
FltCat VFR VFR VFR VFR VFR VFR VFR VFR VFR VFR VFR VFR VFR VFR
WX -- -- -- -- -- -- -- -- -- -- -- -- -- --
WDir 250 220 220 220 200 200 200 200 180 180 180 180 180 180
WSpd 6 6 6 6 11 11 11 11 7 7 7 7 7 7
WGst -- -- -- -- 17 17 17 17 -- -- -- -- -- --
R04/22
XWnd 4 1 1 1 -2 -2 -2 -2 -4 -4 -4 -4 -4 -4
XGst -- -- -- -- -4 -4 -4 -4 -- -- -- -- -- --
HWnd -5 -6 -6 -6 -11 -11 -11 -11 -6 -6 -6 -6 -6 -6
HGst -- -- -- -- -17 -17 -17 -17 -- -- -- -- -- --
R10/28
XWnd -2 -5 -5 -5 -11 -11 -11 -11 -7 -7 -7 -7 -7 -7
XGst -- -- -- -- -16 -16 -16 -16 -- -- -- -- -- --
HWnd -5 -4 -4 -4 -3 -3 -3 -3 0 0 0 0 0 0
HGst -- -- -- -- -5 -5 -5 -5 -- -- -- -- -- --
R15/33
XWnd -6 -6 -6 -6 -9 -9 -9 -9 -4 -4 -4 -4 -4 -4
XGst -- -- -- -- -14 -14 -14 -14 -- -- -- -- -- --
HWnd -2 1 1 1 6 6 6 6 6 6 6 6 6 6
HGst -- -- -- -- 10 10 10 10 -- -- -- -- -- --

NOTE: TEMPO conditions in [brackets]. Keep in mind TEMPO conditions might be better (lower impact) than prevailing conditions.

Raw TAF
KBWI 041144Z 0412/0518 VRB03KT P6SM SCT100
  FM041400 22006KT P6SM FEW090
  FM041800 20011G17KT P6SM SCT060
  FM042200 18007KT P6SM FEW050


Raw METAR
KBWI 041354Z 25006KT 10SM FEW250 23/09 A3023 RMK AO2 SLP234 T02280094
KBWI 041254Z 25003KT 10SM FEW250 21/10 A3023 RMK AO2 SLP235 T02060100
KBWI 041154Z 00000KT 10SM CLR 15/09 A3022 RMK AO2 SLP234 T01500094 10156 20100 53015

METAR Board
Radar Display
Forecast Discussion

TAF Board Legend

Potential Impact
Threat None Slight Moderate High
Visibility (sm) ≥5.1 5.1>X≥3 3>X≥1 <1
Ceiling (100 ft) ≥30.1 30.1>X≥10 10>X≥5 <5
Wind Speed (kt) <10 10≤X<20 20≤X<30 ≥30
Wind Gust (kt) <15 15≤X<25 25≤X<35 ≥35
Weather No Wx Reported VCTS,-TS,-FZRA,SN TS,FZRA +TS,+FZRA,+SN